Latest Weather Observations for Albany Airport

IDW60801

Issued at 6:04 pm WST Saturday 1 October 2016 (issued every 30 minutes, with the page automatically refreshed every 10 minutes)

About weather observations | Map of weather stations | Latest weather observations for WA | Other Formats
Station Details ID: 009999 Name: ALBANY AIRPORT Lat: -34.94 Lon: 117.82 Height: 68.4 m
Data from the previous 72 hours. | See also: Recent months at Albany Airport
Date/Time
WST
Temp
°C
App
Temp
°C
Dew
Point
°C
Rel
Hum
%
Delta-T
°C
Wind Press
QNH
hPa
Press
MSL
hPa
Rain since
9am
mm
Dir  Spd
km/h
Gust
km/h
Spd
kts
Gust
kts
01/06:00pm 6.7 1.0 4.7 87 0.9 W 24 32 13 17 1000.1 1000.1 5.4
01/05:55pm 6.7 1.3 4.4 85 1.0 W 22 32 12 17 999.6 - 5.4
01/05:40pm 6.6 0.0 4.3 85 1.0 W 28 46 15 25 999.5 - 5.2
01/05:37pm 6.7 -0.2 4.4 85 1.0 SW 30 43 16 23 999.7 - 4.8
01/05:30pm 7.4 1.9 4.0 79 1.5 SW 22 28 12 15 999.7 - 4.6
01/05:08pm 7.6 -0.2 4.7 82 1.3 W 35 57 19 31 999.0 - 4.6
01/05:05pm 7.9 0.5 4.8 81 1.4 W 33 50 18 27 999.0 - 4.4
01/05:00pm 7.9 0.6 4.5 79 1.5 W 32 44 17 24 999.0 - 4.4
01/04:52pm 7.5 -1.2 4.1 79 1.5 WSW 39 57 21 31 998.7 - 4.4
01/04:46pm 7.5 -3.0 3.8 77 1.6 W 48 57 26 31 998.8 - 4.4
01/04:30pm 9.2 2.3 2.7 64 2.8 WSW 28 52 15 28 998.3 - 3.6
01/04:27pm 9.7 2.7 2.2 59 3.2 WSW 28 52 15 28 998.3 - 3.6
01/04:00pm 10.1 2.5 2.7 60 3.2 W 32 39 17 21 997.7 - 3.6
01/03:39pm 11.4 2.5 3.0 56 3.7 WNW 39 57 21 31 997.6 - 3.6
01/03:30pm 11.7 3.2 2.9 55 3.9 W 37 54 20 29 997.5 - 3.6
01/03:00pm 12.1 1.4 2.3 51 4.3 W 48 70 26 38 997.1 997.1 3.6
01/02:30pm 11.9 2.4 1.7 49 4.4 W 41 61 22 33 996.2 - 3.6
01/02:00pm 10.9 0.9 2.1 54 3.8 W 44 72 24 39 996.3 - 3.6
01/01:39pm 10.3 -1.4 3.3 62 3.1 W 54 80 29 43 995.9 - 3.6
01/01:30pm 11.2 1.3 4.7 64 3.0 W 46 74 25 40 995.5 - 3.4
01/01:24pm 10.3 0.5 5.3 71 2.3 WSW 46 65 25 35 995.5 - 3.4
01/01:22pm 10.0 -1.5 4.5 68 2.5 WSW 54 65 29 35 995.4 - 3.4
01/01:21pm 9.9 -2.0 4.3 68 2.5 WSW 56 65 30 35 995.4 - 3.4
01/01:14pm 11.5 3.2 4.0 60 3.4 W 37 57 20 31 995.5 - 3.4
01/01:00pm 10.9 1.9 4.3 64 3.0 W 41 56 22 30 995.5 - 3.4
01/12:48pm 10.4 2.5 4.4 66 2.7 W 35 54 19 29 995.3 - 3.4
01/12:47pm 10.2 2.7 4.5 68 2.6 W 33 39 18 21 995.4 - 3.4
01/12:30pm 8.6 -2.4 4.8 77 1.7 W 52 80 28 43 995.5 - 3.2
01/12:00pm 12.2 1.4 4.1 57 3.7 W 50 69 27 37 994.6 994.7 3.2
01/11:59am 12.1 1.3 4.2 58 3.6 W 50 69 27 37 994.6 - 3.2
01/11:56am 11.6 -1.1 3.3 56 3.7 W 59 69 32 37 994.5 - 3.2
01/11:47am 11.1 2.5 4.8 65 2.9 W 39 67 21 36 994.6 - 3.2
01/11:30am 8.7 -0.6 5.7 81 1.4 W 44 76 24 41 994.8 - 3.0
01/11:16am 7.9 -4.0 4.3 78 1.6 W 56 95 30 51 994.8 - 2.8
01/11:13am 9.0 -3.1 4.0 71 2.2 W 57 95 31 51 994.4 - 2.6
01/11:09am 9.7 -2.3 4.9 72 2.2 W 57 76 31 41 994.4 - 2.6
01/11:00am 9.4 1.9 6.2 80 1.5 W 35 61 19 33 994.3 - 2.6
01/10:44am 8.7 -2.5 5.7 81 1.4 W 54 87 29 47 994.5 - 2.0
01/10:36am 10.7 0.4 4.6 66 2.8 W 48 74 26 40 993.9 - 1.8
01/10:30am 9.5 -1.7 4.1 69 2.4 W 52 80 28 43 993.9 - 1.8
01/10:24am 8.8 -4.0 4.6 75 1.9 W 61 95 33 51 994.0 - 1.8
01/10:20am 9.1 -3.6 5.1 76 1.8 W 61 95 33 51 994.0 - 1.8
01/10:00am 9.5 0.3 6.5 81 1.4 W 44 76 24 41 993.6 - 1.8
01/09:55am 9.5 -0.1 6.3 80 1.5 W 46 76 25 41 993.6 - 1.8
01/09:32am 8.4 -0.9 5.8 84 1.2 W 44 72 24 39 993.4 - 0.4
01/09:31am 9.5 0.4 5.8 78 1.7 W 43 57 23 31 993.4 - 0.0
01/09:30am 9.9 1.1 5.6 74 2.0 W 41 57 22 31 993.3 - 0.0
01/09:29am 10.1 1.6 5.3 72 2.2 W 39 48 21 26 993.1 - 0.0
01/09:20am 10.4 -2.4 4.4 66 2.7 WNW 61 80 33 43 992.6 - 0.0
01/09:19am 10.2 -3.3 4.7 68 2.5 WNW 65 80 35 43 992.5 - 0.0
01/09:02am 10.9 0.8 3.8 61 3.2 W 46 69 25 37 992.4 - 0.0
01/09:00am 11.0 1.5 4.7 65 2.9 W 44 57 24 31 992.4 992.5 3.4
01/08:56am 10.9 1.5 4.3 64 3.0 W 43 54 23 29 992.5 - 3.4
01/08:42am 9.7 -3.1 4.4 69 2.4 W 61 83 33 45 992.9 - 3.4
01/08:37am 10.2 -0.1 4.5 68 2.6 WNW 48 76 26 41 992.7 - 3.4
01/08:30am 10.0 0.7 5.2 72 2.2 WNW 43 74 23 40 992.3 - 3.4
01/08:11am 9.1 -0.4 4.7 74 2.0 W 44 78 24 42 992.4 - 2.6
01/08:09am 9.6 0.3 5.0 73 2.1 W 43 78 23 42 992.4 - 2.6
01/08:04am 11.3 2.8 5.3 66 2.8 W 39 57 21 31 992.4 - 2.6
01/08:00am 10.8 1.4 4.7 66 2.8 W 43 57 23 31 992.2 - 2.6
01/07:30am 10.3 0.9 5.6 72 2.2 WNW 44 63 24 34 992.0 - 2.4
01/07:07am 9.7 0.3 5.6 75 1.9 W 44 63 24 34 992.0 - 2.4
01/07:00am 9.6 0.9 6.0 78 1.7 WNW 41 65 22 35 991.9 - 2.4
01/06:53am 9.4 2.5 6.4 81 1.4 W 32 50 17 27 991.9 - 2.4
01/06:47am 9.4 2.5 6.4 81 1.4 W 32 44 17 24 992.1 - 2.4
01/06:39am 9.6 1.3 6.2 79 1.6 WNW 39 61 21 33 991.8 - 2.2
01/06:30am 9.7 0.7 6.3 79 1.6 WNW 43 63 23 34 991.7 - 2.2
01/06:16am 10.3 0.3 7.8 84 1.2 W 50 69 27 37 991.8 - 2.0
01/06:07am 11.0 0.5 9.0 87 1.0 WNW 54 63 29 34 991.5 - 1.8
01/06:05am 11.2 -1.0 8.8 85 1.2 NW 63 82 34 44 991.2 - 1.8
01/06:04am 11.4 -1.3 8.4 82 1.5 NW 65 82 35 44 990.8 - 1.8
01/06:03am 11.3 2.7 8.3 82 1.5 NNW 43 82 23 44 990.7 - 1.8
01/06:01am 11.3 4.0 8.9 85 1.2 NNW 37 56 20 30 990.6 - 1.6
01/06:00am 11.3 4.4 8.7 84 1.3 NNW 35 52 19 28 990.6 990.7 1.6
01/05:59am 11.4 4.4 8.6 83 1.4 NNW 35 52 19 28 990.6 - 1.4
01/05:58am 11.4 4.8 8.6 83 1.4 NNW 33 52 18 28 990.6 - 1.4
01/05:49am 11.4 5.0 8.4 82 1.5 NNW 32 41 17 22 990.2 - 1.2
01/05:30am 11.9 5.6 7.4 74 2.2 NNW 30 41 16 22 990.6 - 1.0
01/05:00am 11.2 5.0 7.7 79 1.7 N 30 41 16 22 991.1 - 1.0
01/04:30am 10.9 5.5 7.8 81 1.5 NNW 26 35 14 19 992.7 - 1.0
01/04:00am 10.7 5.3 7.8 82 1.4 NNW 26 35 14 19 993.6 - 1.0
01/03:30am 10.6 6.0 8.0 84 1.3 NNW 22 35 12 19 994.2 - 1.0
01/03:00am 11.0 6.4 8.0 82 1.5 NNW 22 33 12 18 995.1 995.2 1.0
01/02:30am 10.7 5.6 7.6 81 1.5 NNW 24 37 13 20 995.9 - 1.0
01/02:00am 10.8 5.7 7.5 80 1.6 NNW 24 35 13 19 996.6 - 1.0
01/01:30am 10.9 6.7 8.3 84 1.3 NNW 20 30 11 16 997.5 - 1.0
01/01:00am 10.9 6.8 8.7 86 1.1 NNW 20 30 11 16 998.1 - 1.0
01/12:30am 11.1 7.3 8.9 86 1.1 NNW 19 30 10 16 998.5 - 1.0
01/12:00am 11.1 7.4 9.3 89 0.9 NNW 19 24 10 13 999.0 999.1 1.0
 
Date/Time
WST
Temp
°C
App
Temp
°C
Dew
Point
°C
Rel
Hum
%
Delta-T
°C
Wind Press
QNH
hPa
Press
MSL
hPa
Rain since
9am
mm
Dir  Spd
km/h
Gust
km/h
Spd
kts
Gust
kts
30/11:30pm 11.2 7.5 9.4 89 0.9 NNW 19 22 10 12 999.6 - 1.0
30/11:00pm 11.3 7.6 9.3 87 1.0 NW 19 26 10 14 1000.0 - 1.0
30/10:30pm 11.4 8.1 9.6 89 0.9 NW 17 20 9 11 1000.6 - 1.0
30/10:00pm 11.1 8.5 9.5 90 0.8 NW 13 17 7 9 1000.8 - 1.0
30/09:30pm 10.8 8.2 9.2 90 0.8 NW 13 15 7 8 1001.2 - 1.0
30/09:00pm 11.4 8.4 9.4 87 1.0 WNW 15 20 8 11 1001.5 1001.6 1.0
30/08:30pm 11.6 7.9 9.6 87 1.0 W 19 24 10 13 1001.6 - 1.0
30/08:00pm 11.8 8.7 10.3 90 0.8 WNW 17 20 9 11 1001.6 - 1.0
30/07:30pm 12.0 8.4 9.9 87 1.1 WNW 19 24 10 13 1001.7 - 1.0
30/07:00pm 12.2 8.4 9.9 86 1.2 W 20 28 11 15 1001.1 - 1.0
30/06:30pm 12.3 7.8 10.0 86 1.2 W 24 35 13 19 1001.0 - 1.0
30/06:00pm 12.5 6.9 10.0 85 1.3 W 30 46 16 25 1000.8 1000.9 1.0
30/05:58pm 12.4 7.3 10.7 89 0.9 W 28 46 15 25 1000.9 - 1.0
30/05:38pm 12.5 6.5 10.8 89 0.9 W 33 50 18 27 1000.7 - 1.0
30/05:30pm 12.6 6.6 10.9 89 0.9 W 33 50 18 27 1000.7 - 1.0
30/05:16pm 12.3 5.5 10.8 90 0.8 W 37 56 20 30 1000.7 - 0.8
30/05:11pm 13.0 6.8 10.1 82 1.5 W 33 50 18 27 1000.6 - 0.8
30/05:00pm 13.5 6.5 10.0 79 1.8 W 37 54 20 29 1000.1 - 0.6
30/04:59pm 13.6 6.6 10.0 79 1.9 W 37 54 20 29 1000.0 - 0.6
30/04:42pm 13.7 7.3 10.7 82 1.6 W 35 52 19 28 999.9 - 0.6
30/04:40pm 14.0 7.8 10.0 77 2.1 W 33 52 18 28 999.7 - 0.4
30/04:30pm 15.6 7.9 8.8 64 3.5 WNW 39 52 21 28 999.5 - 0.0
30/04:00pm 15.8 7.6 8.1 60 3.9 W 41 63 22 34 999.0 - 0.0
30/03:46pm 16.6 8.4 8.0 57 4.4 WNW 41 61 22 33 998.9 - 0.0
30/03:30pm 16.6 10.2 9.4 62 3.8 WNW 33 50 18 27 999.0 - 0.0
30/03:00pm 17.0 8.7 7.8 54 4.7 W 41 65 22 35 998.8 998.9 0.0
30/02:49pm 17.7 9.8 7.7 52 5.1 WNW 39 59 21 32 998.7 - 0.0
30/02:35pm 16.5 10.6 10.3 67 3.3 W 32 48 17 26 998.9 - 0.0
30/02:30pm 17.0 7.9 7.0 51 5.0 WNW 44 65 24 35 998.8 - 0.0
30/02:00pm 17.3 8.5 8.2 55 4.7 WNW 44 63 24 34 998.9 - 0.0
30/01:53pm 17.8 8.8 8.8 55 4.7 W 46 59 25 32 999.1 - 0.0
30/01:38pm 16.6 9.8 9.1 61 3.9 NW 35 54 19 29 999.3 - 0.0
30/01:30pm 17.7 11.4 9.6 59 4.3 WNW 33 46 18 25 999.4 - 0.0
30/01:15pm 18.2 12.1 10.4 60 4.2 WNW 33 52 18 28 999.7 - 0.0
30/01:00pm 16.0 8.9 9.7 66 3.3 WNW 37 48 20 26 999.8 - 0.0
30/12:42pm 16.7 9.6 8.1 57 4.4 WNW 35 54 19 29 1000.0 - 0.0
30/12:30pm 16.4 8.4 7.5 55 4.5 WNW 39 50 21 27 1000.1 - 0.0
30/12:03pm 16.6 9.1 6.5 51 5.0 W 35 56 19 30 1000.2 - 0.0
30/12:00pm 16.7 9.9 7.6 55 4.6 W 33 50 18 27 1000.4 1000.5 0.0
30/11:36am 16.8 10.1 7.3 53 4.8 WNW 32 50 17 27 1000.4 - 0.0
30/11:30am 18.1 11.7 8.7 54 4.9 NW 32 44 17 24 1000.4 - 0.0
30/11:10am 15.8 10.0 7.9 59 4.0 WNW 28 46 15 25 1000.8 - 0.0
30/11:00am 15.9 9.6 8.9 63 3.6 NW 32 46 17 25 1001.1 - 0.0
30/10:30am 15.3 9.5 9.3 67 3.1 NW 30 46 16 25 1001.4 - 0.0
30/10:24am 14.5 9.3 10.3 76 2.2 NW 28 35 15 19 1001.5 - 0.0
30/10:00am 13.1 6.9 9.4 78 1.9 W 32 37 17 20 1002.1 - 0.0
30/09:43am 14.0 8.2 8.0 67 3.0 NW 28 46 15 25 1002.0 - 0.0
30/09:30am 14.1 8.2 7.7 65 3.2 NW 28 37 15 20 1002.1 - 0.0
30/09:00am 12.7 8.5 8.1 73 2.3 NW 20 30 11 16 1002.6 1002.8 0.0
30/08:30am 12.2 5.7 6.6 68 2.7 NNW 30 43 16 23 1003.0 - 0.0
30/08:00am 11.9 6.0 6.0 67 2.8 NNW 26 35 14 19 1002.9 - 0.0
30/07:30am 11.1 5.6 5.7 69 2.5 NNW 24 35 13 19 1003.4 - 0.0
30/07:00am 10.6 6.1 5.9 73 2.2 NNW 19 26 10 14 1003.6 - 0.0
30/06:30am 10.0 5.2 5.4 73 2.1 N 20 26 11 14 1003.4 - 0.0
30/06:00am 9.6 4.8 5.5 75 1.9 N 20 28 11 15 1004.2 1004.4 0.0
30/05:30am 8.7 4.9 5.9 82 1.3 N 15 20 8 11 1004.4 - 0.0
30/05:00am 8.5 4.4 6.1 85 1.1 NNW 17 20 9 11 1004.9 - 0.0
30/04:30am 8.1 3.6 6.1 87 0.9 N 19 24 10 13 1005.4 - 0.0
30/04:00am 7.9 3.7 5.7 86 1.0 NNW 17 22 9 12 1005.9 - 0.0
30/03:30am 6.5 3.0 5.4 93 0.5 NW 13 15 7 8 1006.8 - 0.0
30/03:00am 6.7 3.6 5.4 91 0.6 NW 11 13 6 7 1006.9 1007.1 0.0
30/02:30am 6.8 3.7 5.5 91 0.6 NW 11 13 6 7 1007.2 - 0.0
30/02:00am 6.0 3.6 5.1 94 0.4 NW 7 9 4 5 1008.1 - 0.0
30/01:30am 6.3 3.9 5.4 94 0.4 N 7 9 4 5 1008.3 - 0.0
30/01:00am 6.7 4.4 5.6 93 0.5 N 7 9 4 5 1009.0 - 0.0
30/12:30am 6.2 3.9 5.8 97 0.2 N 7 11 4 6 1009.4 - 0.0
30/12:00am 6.2 3.5 5.8 97 0.2 N 9 11 5 6 1010.0 1010.2 0.0
 
Date/Time
WST
Temp
°C
App
Temp
°C
Dew
Point
°C
Rel
Hum
%
Delta-T
°C
Wind Press
QNH
hPa
Press
MSL
hPa
Rain since
9am
mm
Dir  Spd
km/h
Gust
km/h
Spd
kts
Gust
kts
29/11:30pm 5.7 2.9 5.2 97 0.2 N 9 11 5 6 1010.4 - 0.0
29/11:00pm 6.3 3.7 5.9 97 0.2 N 9 9 5 5 1010.9 - 0.0
29/10:30pm 8.7 6.3 7.0 89 0.8 WNW 9 11 5 6 1011.7 - 0.0
29/10:00pm 8.2 6.1 6.7 90 0.7 WNW 7 9 4 5 1012.1 - 0.0
29/09:30pm 8.4 5.6 6.9 90 0.7 WNW 11 13 6 7 1012.6 - 0.0
29/09:00pm 8.4 5.5 6.7 89 0.8 WNW 11 13 6 7 1013.1 1013.2 0.0
29/08:30pm 8.3 5.5 6.8 90 0.7 W 11 13 6 7 1013.4 - 0.0
29/08:00pm 9.0 6.6 6.9 87 1.0 W 9 11 5 6 1013.5 - 0.0
29/07:30pm 9.1 7.1 7.0 87 1.0 WSW 7 9 4 5 1013.5 - 0.0
29/07:00pm 10.2 7.5 7.5 83 1.3 SW 11 13 6 7 1013.7 - 0.0
29/06:30pm 11.0 7.9 7.2 77 1.8 SW 13 17 7 9 1013.7 - 0.0
29/06:00pm 12.1 8.5 6.9 70 2.5 SW 15 20 8 11 1013.8 1013.9 0.0
29/05:30pm 13.3 8.8 5.9 61 3.5 SW 19 22 10 12 1013.5 - 0.0
29/05:00pm 15.1 11.2 5.4 52 4.6 SW 15 19 8 10 1013.5 - 0.0
29/04:30pm 16.5 12.0 4.4 44 5.7 NW 17 20 9 11 1013.8 - 0.0
29/04:00pm 16.6 12.1 4.3 44 5.8 NNW 17 24 9 13 1014.3 - 0.0
29/03:30pm 16.5 12.3 3.8 42 5.9 N 15 24 8 13 1014.6 - 0.0
29/03:00pm 16.4 11.5 4.0 43 5.8 N 19 24 10 13 1015.3 1015.5 0.0
29/02:30pm 16.2 11.6 3.7 43 5.8 N 17 26 9 14 1016.1 - 0.0
29/02:00pm 15.8 12.1 4.2 46 5.4 NNE 13 22 7 12 1016.6 - 0.0
29/01:30pm 15.4 10.3 3.3 44 5.5 NNW 19 28 10 15 1017.3 - 0.0
29/01:00pm 15.0 9.8 2.4 42 5.6 NNW 19 32 10 17 1017.9 - 0.0
29/12:30pm 15.3 10.7 3.8 46 5.3 N 17 24 9 13 1018.5 - 0.0
29/12:00pm 15.1 11.0 4.3 48 5.0 N 15 24 8 13 1019.1 1019.3 0.0
29/11:30am 13.7 9.8 3.5 50 4.6 N 13 20 7 11 1019.8 - 0.0
29/11:00am 13.3 8.6 3.2 50 4.5 N 17 30 9 16 1020.3 - 0.0
29/10:30am 12.0 7.2 2.6 52 4.1 N 17 24 9 13 1020.6 - 0.0
29/10:00am 11.6 6.7 2.3 53 4.0 N 17 24 9 13 1021.4 - 0.0
29/09:30am 10.7 5.5 2.5 57 3.5 N 19 24 10 13 1021.9 - 0.0
29/09:00am 10.1 6.0 2.0 57 3.4 NNW 13 19 7 10 1022.4 1022.6 -
29/08:30am 9.8 6.5 2.2 59 3.2 N 9 13 5 7 1022.5 - -
29/08:00am 9.8 6.6 2.8 61 3.0 N 9 19 5 10 1022.5 - -
29/07:30am 9.3 5.6 2.1 61 3.0 N 11 17 6 9 1022.2 - -
29/07:00am 8.9 5.3 2.8 65 2.6 N 11 15 6 8 1021.8 - -
29/06:30am 8.2 6.1 4.1 75 1.8 N 4 11 2 6 1021.8 - -
29/06:00am 8.5 5.1 1.7 62 2.8 NNE 9 17 5 9 1021.9 1022.1 -
29/05:30am 7.5 4.7 5.2 85 1.0 N 9 15 5 8 1021.7 - -
29/05:00am 7.4 5.2 5.1 85 1.0 ENE 6 9 3 5 1021.3 - -
29/04:30am 7.6 5.3 4.9 83 1.2 NE 6 7 3 4 1021.3 - -
29/04:00am 7.7 5.8 4.7 81 1.3 NNW 4 9 2 5 1021.5 - -
29/03:30am 7.5 5.3 5.5 87 0.9 NW 6 7 3 4 1021.7 - -
29/03:00am 7.6 5.4 5.1 84 1.1 W 6 9 3 5 1021.9 1022.1 -
29/02:30am 7.6 5.2 5.1 84 1.1 WNW 7 9 4 5 1022.3 - -
29/02:00am 7.8 5.4 5.3 84 1.1 WNW 7 11 4 6 1022.5 - -
29/01:30am 7.7 4.9 5.0 83 1.2 N 9 9 5 5 1023.0 - -
29/01:00am 8.0 5.6 4.3 77 1.6 NE 6 7 3 4 1023.2 - -
29/12:30am 8.3 5.7 3.4 71 2.1 E 6 9 3 5 1023.3 - -
29/12:00am 9.0 6.2 2.3 63 2.8 SE 6 11 3 6 1023.2 1023.4 -
 
Date/Time
WST
Temp
°C
App
Temp
°C
Dew
Point
°C
Rel
Hum
%
Delta-T
°C
Wind Press
QNH
hPa
Press
MSL
hPa
Rain since
9am
mm
Dir  Spd
km/h
Gust
km/h
Spd
kts
Gust
kts
28/11:30pm 7.8 6.6 4.8 81 1.3 CALM 0 0 0 0 1023.4 - -
28/11:00pm 8.1 5.4 3.7 74 1.9 WNW 7 9 4 5 1023.6 - -
28/10:30pm 8.1 5.4 3.7 74 1.9 WNW 7 9 4 5 1023.8 - -
28/10:00pm 8.0 5.0 4.1 76 1.7 WNW 9 9 5 5 1024.0 - -
28/09:30pm 7.9 5.3 4.2 77 1.6 WNW 7 9 4 5 1024.3 - -
28/09:00pm 8.1 5.6 3.9 75 1.8 W 6 7 3 4 1024.2 1024.4 -
28/08:30pm 8.2 5.7 4.0 75 1.8 SSW 6 6 3 3 1024.1 - -
28/08:00pm 8.4 5.2 3.0 69 2.3 SSW 9 11 5 6 1024.1 - -
28/07:30pm 9.1 4.9 1.6 59 3.1 S 13 19 7 10 1023.8 - -
28/07:00pm 9.1 6.0 3.5 68 2.4 SSW 9 13 5 7 1023.6 - -
28/06:30pm 9.4 5.8 3.1 65 2.7 SSW 11 17 6 9 1023.4 - -

Other Formats:

Comma delimited format used in spreadsheet applications
http://www.bom.gov.au/fwo/IDW60801/IDW60801.94802.axf

JavaScript Object Notation format (JSON) in row-major order
http://www.bom.gov.au/fwo/IDW60801/IDW60801.94802.json